createdAt,value
2023-05-24T00:00:33.808Z,100192.28
2023-05-24T00:03:39.514Z,100193.28
2023-05-24T00:06:42.695Z,100201.91
2023-05-24T00:09:45.103Z,100199.03
2023-05-24T00:12:47.502Z,100206.94
2023-05-24T00:15:49.890Z,100201.06
2023-05-24T00:18:52.402Z,100198.06
2023-05-24T00:21:55.576Z,100187.91
2023-05-24T00:24:58.083Z,100196.53
2023-05-24T00:28:00.626Z,100185.34
2023-05-24T00:31:03.085Z,100191.34
2023-05-24T00:34:05.615Z,100191.47
2023-05-24T00:37:08.319Z,100180.06
2023-05-24T00:40:11.627Z,100181.09
2023-05-24T00:43:14.131Z,100170.75
2023-05-24T00:46:16.974Z,100170.66
2023-05-24T00:49:19.567Z,100167.41
2023-05-24T00:52:21.937Z,100163.38
2023-05-24T00:55:24.720Z,100158.94
2023-05-24T00:58:31.105Z,100169.25
2023-05-24T01:01:33.541Z,100172.91
2023-05-24T01:04:37.988Z,100170.72
2023-05-24T01:07:55.640Z,100171.13
2023-05-24T01:11:10.778Z,100168.06
2023-05-24T01:14:34.425Z,100174.03
2023-05-24T01:17:54.143Z,100163.38
2023-05-24T01:21:09.983Z,100166.50
2023-05-24T01:24:33.919Z,100162.19
2023-05-24T01:27:36.646Z,100167.25
2023-05-24T01:30:40.560Z,100163.88
2023-05-24T01:33:43.481Z,100162.25
2023-05-24T01:36:45.936Z,100153.44
2023-05-24T01:39:48.435Z,100155.34
2023-05-24T01:43:18.502Z,100155.28
2023-05-24T01:46:39.126Z,100157.91
2023-05-24T01:49:46.036Z,100147.56
2023-05-24T01:52:48.414Z,100158.94
2023-05-24T01:55:51.708Z,100138.44
2023-05-24T01:58:54.202Z,100158.22
2023-05-24T02:01:56.837Z,100153.94
2023-05-24T02:04:59.216Z,100168.88
2023-05-24T02:08:02.411Z,100164.63
2023-05-24T02:11:04.836Z,100168.34
2023-05-24T02:14:07.257Z,100162.44
2023-05-24T02:17:09.880Z,100174.75
2023-05-24T02:20:13.585Z,100168.97
2023-05-24T02:23:16.096Z,100172.44
2023-05-24T02:26:21.288Z,100176.75
2023-05-24T02:29:23.734Z,100180.78
2023-05-24T02:32:26.259Z,100178.41
2023-05-24T02:35:28.681Z,100173.06
2023-05-24T02:38:32.110Z,100183.72
2023-05-24T02:41:34.671Z,100182.84
2023-05-24T02:44:37.118Z,100185.78
2023-05-24T02:47:39.583Z,100192.66
2023-05-24T02:50:42.176Z,100184.94
2023-05-24T02:53:45.460Z,100191.44
2023-05-24T02:56:48.617Z,100194.13
2023-05-24T02:59:53.091Z,100190.78
2023-05-24T03:03:00.945Z,100193.25
2023-05-24T03:06:03.562Z,100210.84
2023-05-24T03:09:05.930Z,100207.19
2023-05-24T03:12:08.478Z,100208.00
2023-05-24T03:15:11.600Z,100208.16
2023-05-24T03:18:13.998Z,100205.38
2023-05-24T03:21:18.232Z,100209.66
2023-05-24T03:24:20.909Z,100204.75
2023-05-24T03:27:24.616Z,100208.72
2023-05-24T03:30:27.016Z,100211.88
2023-05-24T03:33:32.249Z,100210.78
2023-05-24T03:36:34.661Z,100209.81
2023-05-24T03:39:37.060Z,100216.03
2023-05-24T03:43:05.494Z,100213.66
2023-05-24T03:46:22.425Z,100214.22
2023-05-24T03:49:24.821Z,100216.28
2023-05-24T03:52:28.097Z,100214.09
2023-05-24T03:55:30.595Z,100217.38
2023-05-24T03:58:33.289Z,100223.75
2023-05-24T04:01:36.896Z,100217.94
2023-05-24T04:04:39.561Z,100227.41
2023-05-24T04:07:43.856Z,100226.03
2023-05-24T04:10:47.544Z,100232.00
2023-05-24T04:13:51.359Z,100232.38
2023-05-24T04:16:53.965Z,100234.44
2023-05-24T04:19:56.489Z,100237.72
2023-05-24T04:22:59.150Z,100240.34
2023-05-24T04:26:01.835Z,100246.44
2023-05-24T04:29:05.473Z,100248.47
2023-05-24T04:32:10.217Z,100247.41
2023-05-24T04:35:12.679Z,100249.88
2023-05-24T04:38:15.126Z,100251.56
2023-05-24T04:41:17.545Z,100247.19
2023-05-24T04:44:19.921Z,100248.72
2023-05-24T04:47:22.366Z,100245.81
2023-05-24T04:50:24.821Z,100246.69
2023-05-24T04:53:27.301Z,100263.09
2023-05-24T04:56:29.680Z,100269.78
2023-05-24T04:59:32.033Z,100272.97
2023-05-24T05:02:34.671Z,100253.00
2023-05-24T05:05:37.134Z,100277.50
2023-05-24T05:08:39.490Z,100282.28
2023-05-24T05:11:42.009Z,100273.78
2023-05-24T05:14:44.368Z,100273.63
2023-05-24T05:17:46.966Z,100279.16
2023-05-24T05:20:49.762Z,100285.84
2023-05-24T05:23:52.210Z,100284.25
2023-05-24T05:26:54.632Z,100286.38
2023-05-24T05:29:57.155Z,100296.59
2023-05-24T05:32:59.684Z,100298.56
2023-05-24T05:36:02.183Z,100303.91
2023-05-24T05:39:05.137Z,100310.69
2023-05-24T05:42:07.609Z,100316.53
2023-05-24T05:45:10.595Z,100308.53
2023-05-24T05:48:13.027Z,100307.84
2023-05-24T05:51:15.448Z,100314.03
2023-05-24T05:54:18.538Z,100313.88
2023-05-24T05:57:24.404Z,100326.06
2023-05-24T06:00:26.922Z,100326.22
2023-05-24T06:03:29.594Z,100329.25
2023-05-24T06:06:33.291Z,100330.72
2023-05-24T06:09:35.669Z,100326.25
2023-05-24T06:12:40.517Z,100329.75
2023-05-24T06:15:43.040Z,100332.22
2023-05-24T06:18:57.121Z,100334.38
2023-05-24T06:22:04.456Z,100332.59
2023-05-24T06:25:07.075Z,100338.31
2023-05-24T06:28:09.942Z,100345.34
2023-05-24T06:31:12.356Z,100343.16
2023-05-24T06:34:19.069Z,100349.91
2023-05-24T06:37:25.389Z,100342.81
2023-05-24T06:40:30.531Z,100350.84
2023-05-24T06:43:33.514Z,100359.09
2023-05-24T06:46:36.138Z,100354.88
2023-05-24T06:49:39.150Z,100333.53
2023-05-24T06:52:41.939Z,100368.16
2023-05-24T06:55:44.357Z,100367.50
2023-05-24T06:58:46.932Z,100354.25
2023-05-24T07:01:51.794Z,100363.84
2023-05-24T07:04:54.678Z,100368.63
2023-05-24T07:07:57.209Z,100361.91
2023-05-24T07:10:59.744Z,100371.25
2023-05-24T07:14:02.280Z,100371.75
2023-05-24T07:17:04.901Z,100382.78
2023-05-24T07:20:10.655Z,100391.78
2023-05-24T07:23:13.093Z,100383.19
2023-05-24T07:26:16.018Z,100379.88
2023-05-24T07:29:18.471Z,100381.44
2023-05-24T07:32:24.106Z,100386.84
2023-05-24T07:35:28.720Z,100391.66
2023-05-24T07:38:31.307Z,100390.66
2023-05-24T07:41:33.669Z,100388.00
2023-05-24T07:44:36.240Z,100398.66
2023-05-24T07:47:38.735Z,100397.22
2023-05-24T07:50:41.276Z,100394.75
2023-05-24T07:53:43.857Z,100394.09
2023-05-24T07:56:47.309Z,100400.47
2023-05-24T07:59:49.854Z,100394.63
2023-05-24T08:02:52.451Z,100406.69
2023-05-24T08:05:54.958Z,100398.28
2023-05-24T08:08:57.321Z,100404.81
2023-05-24T08:11:59.700Z,100402.13
2023-05-24T08:15:02.162Z,100406.09
2023-05-24T08:18:05.516Z,100408.06
2023-05-24T08:21:09.039Z,100410.75
2023-05-24T08:24:11.873Z,100408.97
2023-05-24T08:27:14.873Z,100410.13
2023-05-24T08:30:17.654Z,100412.50
2023-05-24T08:33:20.079Z,100419.31
2023-05-24T08:36:22.895Z,100422.81
2023-05-24T08:39:25.246Z,100418.59
2023-05-24T08:42:28.050Z,100430.50
2023-05-24T08:45:31.580Z,100422.97
2023-05-24T08:48:35.189Z,100415.06
2023-05-24T08:51:38.721Z,100421.34
2023-05-24T08:54:41.421Z,100424.75
2023-05-24T08:57:44.482Z,100431.38
2023-05-24T09:00:46.901Z,100436.16
2023-05-24T09:03:49.451Z,100433.00
2023-05-24T09:06:52.283Z,100442.03
2023-05-24T09:09:58.872Z,100449.81
2023-05-24T09:13:03.044Z,100452.69
2023-05-24T09:16:06.373Z,100450.06
2023-05-24T09:19:08.831Z,100452.44
2023-05-24T09:22:15.014Z,100455.66
2023-05-24T09:25:17.695Z,100454.34
2023-05-24T09:28:21.898Z,100455.94
2023-05-24T09:31:34.680Z,100457.56
2023-05-24T09:34:43.808Z,100454.19
2023-05-24T09:37:47.193Z,100466.84
2023-05-24T09:41:07.288Z,100460.25
2023-05-24T09:44:09.708Z,100461.31
2023-05-24T09:47:12.821Z,100461.78
2023-05-24T09:50:17.507Z,100462.31
2023-05-24T09:53:20.224Z,100462.31
2023-05-24T09:56:23.782Z,100470.22
2023-05-24T09:59:26.182Z,100466.50
2023-05-24T10:02:33.311Z,100456.22
2023-05-24T10:05:47.074Z,100457.56
2023-05-24T10:08:49.553Z,100456.22
2023-05-24T10:11:51.933Z,100452.41
2023-05-24T10:14:57.572Z,100453.44
2023-05-24T10:18:01.962Z,100453.75
2023-05-24T10:21:08.566Z,100455.31
2023-05-24T10:24:12.557Z,100454.81
2023-05-24T10:27:16.651Z,100457.19
2023-05-24T10:30:39.376Z,100452.88
2023-05-24T10:33:43.616Z,100455.47
2023-05-24T10:36:46.102Z,100448.84
2023-05-24T10:39:48.503Z,100449.66
2023-05-24T10:42:51.889Z,100449.69
2023-05-24T10:45:54.405Z,100451.41
2023-05-24T10:49:00.801Z,100441.47
2023-05-24T10:52:08.227Z,100441.88
2023-05-24T10:55:11.744Z,100430.69
2023-05-24T10:58:14.238Z,100444.56
2023-05-24T11:01:32.798Z,100443.81
2023-05-24T11:04:40.243Z,100436.41
2023-05-24T11:07:43.210Z,100444.19
2023-05-24T11:10:46.730Z,100435.69
2023-05-24T11:13:49.375Z,100436.47
2023-05-24T11:16:52.057Z,100433.41
2023-05-24T11:19:55.136Z,100427.50
2023-05-24T11:22:57.583Z,100425.47
2023-05-24T11:26:00.030Z,100422.81
2023-05-24T11:29:04.966Z,100426.94
2023-05-24T11:32:08.158Z,100433.59
2023-05-24T11:35:12.698Z,100430.94
2023-05-24T11:38:15.839Z,100429.72
2023-05-24T11:41:18.222Z,100423.59
2023-05-24T11:44:20.685Z,100424.25
2023-05-24T11:47:23.628Z,100417.91
2023-05-24T11:50:45.862Z,100415.41
2023-05-24T11:53:48.743Z,100420.47
2023-05-24T11:56:52.621Z,100414.53
2023-05-24T11:59:55.473Z,100413.41
2023-05-24T12:03:01.782Z,100405.47
2023-05-24T12:06:04.348Z,100406.69
2023-05-24T12:09:13.905Z,100414.06
2023-05-24T12:12:16.270Z,100392.50
2023-05-24T12:15:18.688Z,100390.38
2023-05-24T12:18:26.026Z,100390.44
2023-05-24T12:21:31.787Z,100390.00
2023-05-24T12:24:34.272Z,100391.63
2023-05-24T12:27:36.653Z,100384.34
2023-05-24T12:30:43.662Z,100388.22
2023-05-24T12:33:46.514Z,100382.47
2023-05-24T12:36:48.988Z,100371.41
2023-05-24T12:39:53.075Z,100378.38
2023-05-24T12:42:57.951Z,100371.91
2023-05-24T12:46:00.348Z,100381.94
2023-05-24T12:49:05.040Z,100372.09
2023-05-24T12:52:07.637Z,100373.66
2023-05-24T12:55:10.019Z,100372.00
2023-05-24T12:58:16.389Z,100368.69
2023-05-24T13:01:19.188Z,100372.16
2023-05-24T13:04:23.231Z,100355.13
2023-05-24T13:07:25.762Z,100362.59
2023-05-24T13:10:28.508Z,100352.69
2023-05-24T13:13:32.640Z,100350.41
2023-05-24T13:16:35.718Z,100351.84
2023-05-24T13:19:38.182Z,100344.56
2023-05-24T13:22:40.620Z,100331.00
2023-05-24T13:25:43.092Z,100332.91
2023-05-24T13:29:07.743Z,100331.31
2023-05-24T13:32:07.887Z,100319.06
2023-05-24T13:35:10.324Z,100321.06
2023-05-24T13:38:13.051Z,100319.34
2023-05-24T13:41:15.566Z,100317.63
2023-05-24T13:44:18.134Z,100311.34
2023-05-24T13:47:31.224Z,100302.41
2023-05-24T13:50:38.238Z,100308.91
2023-05-24T13:53:41.262Z,100304.00
2023-05-24T13:56:45.030Z,100311.38
2023-05-24T13:59:47.742Z,100302.06
2023-05-24T14:02:50.290Z,100311.25
2023-05-24T14:05:52.765Z,100309.66
2023-05-24T14:08:55.188Z,100302.28
2023-05-24T14:11:57.942Z,100305.75
2023-05-24T14:15:00.603Z,100288.25
2023-05-24T14:18:07.822Z,100309.16
2023-05-24T14:21:10.838Z,100300.28
2023-05-24T14:24:13.276Z,100304.44
2023-05-24T14:27:15.902Z,100306.38
2023-05-24T14:30:18.297Z,100303.03
2023-05-24T14:33:20.812Z,100301.25
2023-05-24T14:36:23.181Z,100302.03
2023-05-24T14:39:25.696Z,100301.47
2023-05-24T14:42:28.071Z,100298.63
2023-05-24T14:45:30.420Z,100305.22
2023-05-24T14:48:32.793Z,100295.19
2023-05-24T14:51:35.554Z,100278.91
2023-05-24T14:54:40.724Z,100288.78
2023-05-24T14:57:44.598Z,100288.69
2023-05-24T15:00:47.106Z,100282.66
2023-05-24T15:03:49.704Z,100287.78
2023-05-24T15:06:52.267Z,100286.69
2023-05-24T15:09:54.858Z,100279.69
2023-05-24T15:12:57.272Z,100282.16
2023-05-24T15:16:00.665Z,100285.63
2023-05-24T15:19:03.087Z,100289.81
2023-05-24T15:22:05.986Z,100281.41
2023-05-24T15:25:08.866Z,100288.41
2023-05-24T15:28:12.929Z,100290.31
2023-05-24T15:31:15.682Z,100287.16
2023-05-24T15:34:18.190Z,100288.69
2023-05-24T15:37:22.507Z,100283.41
2023-05-24T15:40:24.971Z,100285.38
2023-05-24T15:43:27.502Z,100287.47
2023-05-24T15:46:30.105Z,100284.94
2023-05-24T15:49:32.516Z,100284.94
2023-05-24T15:52:35.311Z,100286.31
2023-05-24T15:55:39.083Z,100294.28
2023-05-24T15:58:41.481Z,100289.22
2023-05-24T16:01:43.958Z,100288.72
2023-05-24T16:04:46.363Z,100284.94
2023-05-24T16:07:48.776Z,100285.88
2023-05-24T16:10:51.603Z,100290.22
2023-05-24T16:13:54.381Z,100289.81
2023-05-24T16:16:58.829Z,100294.34
2023-05-24T16:20:01.793Z,100297.75
2023-05-24T16:23:04.496Z,100297.47
2023-05-24T16:26:06.877Z,100300.13
2023-05-24T16:29:10.634Z,100297.09
2023-05-24T16:32:14.248Z,100304.56
2023-05-24T16:35:16.768Z,100301.47
2023-05-24T16:38:19.175Z,100305.34
2023-05-24T16:41:21.610Z,100312.81
2023-05-24T16:44:24.051Z,100314.06
2023-05-24T16:47:29.448Z,100318.75
2023-05-24T16:50:32.145Z,100325.66
2023-05-24T16:53:34.561Z,100321.78
2023-05-24T16:56:37.682Z,100328.81
2023-05-24T16:59:42.310Z,100339.22
2023-05-24T17:02:44.897Z,100338.75
2023-05-24T17:05:47.458Z,100339.13
2023-05-24T17:08:49.872Z,100349.25
2023-05-24T17:11:52.227Z,100345.81
2023-05-24T17:14:55.287Z,100347.53
2023-05-24T17:17:57.835Z,100355.34
2023-05-24T17:21:01.495Z,100360.69
2023-05-24T17:24:04.060Z,100359.63
2023-05-24T17:27:06.563Z,100352.25
2023-05-24T17:30:09.679Z,100355.00
2023-05-24T17:33:12.147Z,100368.59
2023-05-24T17:36:14.558Z,100373.72
2023-05-24T17:39:17.694Z,100371.34
2023-05-24T17:42:20.053Z,100375.06
2023-05-24T17:45:22.436Z,100375.63
2023-05-24T17:48:24.808Z,100377.47
2023-05-24T17:51:27.249Z,100375.97
2023-05-24T17:54:29.810Z,100378.91
2023-05-24T17:57:32.195Z,100382.91
2023-05-24T18:00:34.606Z,100384.50
2023-05-24T18:03:37.843Z,100392.72
2023-05-24T18:06:40.419Z,100400.38
2023-05-24T18:09:42.801Z,100405.72
2023-05-24T18:12:45.203Z,100416.59
2023-05-24T18:15:48.151Z,100418.97
2023-05-24T18:18:50.632Z,100424.81
2023-05-24T18:21:53.407Z,100428.53
2023-05-24T18:24:55.779Z,100425.34
2023-05-24T18:27:59.045Z,100420.81
2023-05-24T18:31:01.543Z,100428.25
2023-05-24T18:34:04.067Z,100427.16
2023-05-24T18:37:06.457Z,100432.69
2023-05-24T18:40:09.504Z,100445.13
2023-05-24T18:43:11.894Z,100444.56
2023-05-24T18:46:15.489Z,100447.47
2023-05-24T18:49:18.032Z,100451.41
2023-05-24T18:52:20.417Z,100449.75
2023-05-24T18:55:22.805Z,100441.84
2023-05-24T18:58:25.159Z,100451.09
2023-05-24T19:01:28.378Z,100448.81
2023-05-24T19:04:31.008Z,100454.38
2023-05-24T19:07:34.321Z,100462.78
2023-05-24T19:10:36.689Z,100463.75
2023-05-24T19:13:41.721Z,100461.59
2023-05-24T19:16:44.066Z,100470.03
2023-05-24T19:19:46.719Z,100474.59
2023-05-24T19:22:49.175Z,100471.25
2023-05-24T19:25:51.571Z,100476.69
2023-05-24T19:28:54.262Z,100474.69
2023-05-24T19:31:56.732Z,100486.63
2023-05-24T19:34:59.534Z,100484.72
2023-05-24T19:38:01.909Z,100486.84
2023-05-24T19:41:04.442Z,100489.28
2023-05-24T19:44:06.820Z,100486.88
2023-05-24T19:47:09.241Z,100490.22
2023-05-24T19:50:11.639Z,100494.13
2023-05-24T19:53:14.984Z,100496.13
2023-05-24T19:56:17.333Z,100500.72
2023-05-24T19:59:19.739Z,100502.50
2023-05-24T20:02:22.159Z,100506.97
2023-05-24T20:05:24.690Z,100516.09
2023-05-24T20:08:27.105Z,100511.94
2023-05-24T20:11:29.506Z,100504.59
2023-05-24T20:14:31.978Z,100507.72
2023-05-24T20:17:34.414Z,100504.97
2023-05-24T20:20:36.966Z,100506.84
2023-05-24T20:23:39.441Z,100505.44
2023-05-24T20:26:42.011Z,100507.94
2023-05-24T20:29:44.405Z,100508.38
2023-05-24T20:32:46.816Z,100513.38
2023-05-24T20:35:49.943Z,100512.66
2023-05-24T20:38:52.278Z,100505.69
2023-05-24T20:41:55.786Z,100502.97
2023-05-24T20:44:59.118Z,100507.13
2023-05-24T20:48:01.510Z,100496.81
2023-05-24T20:51:04.010Z,100503.13
2023-05-24T20:54:06.476Z,100505.34
2023-05-24T20:57:08.826Z,100501.16
2023-05-24T21:00:11.564Z,100497.63
2023-05-24T21:03:14.093Z,100503.06
2023-05-24T21:06:16.635Z,100496.28
2023-05-24T21:09:19.026Z,100497.41
2023-05-24T21:12:21.672Z,100491.88
2023-05-24T21:15:24.058Z,100498.09
2023-05-24T21:18:26.418Z,100497.88
2023-05-24T21:21:28.770Z,100502.03
2023-05-24T21:24:31.186Z,100497.97
2023-05-24T21:27:33.865Z,100499.47
2023-05-24T21:30:36.259Z,100509.19
2023-05-24T21:33:42.706Z,100501.69
2023-05-24T21:36:45.093Z,100499.69
2023-05-24T21:39:48.080Z,100502.03
2023-05-24T21:42:50.442Z,100492.75
2023-05-24T21:45:52.860Z,100498.31
2023-05-24T21:48:57.121Z,100502.75
2023-05-24T21:51:59.577Z,100501.84
2023-05-24T21:55:02.048Z,100501.19
2023-05-24T21:58:04.484Z,100496.66
2023-05-24T22:01:08.651Z,100494.97
2023-05-24T22:04:11.289Z,100490.13
2023-05-24T22:07:13.986Z,100496.47
2023-05-24T22:10:16.658Z,100485.28
2023-05-24T22:13:19.058Z,100499.09
2023-05-24T22:16:21.488Z,100498.38
2023-05-24T22:19:38.914Z,100507.84
2023-05-24T22:22:53.840Z,100513.16
2023-05-24T22:25:56.266Z,100515.06
2023-05-24T22:29:00.971Z,100515.66
2023-05-24T22:32:03.557Z,100525.41
2023-05-24T22:35:06.520Z,100521.56
2023-05-24T22:38:08.926Z,100522.38
2023-05-24T22:41:11.375Z,100520.97
2023-05-24T22:44:13.784Z,100520.88
2023-05-24T22:47:17.073Z,100520.19
2023-05-24T22:50:19.486Z,100526.53
2023-05-24T22:53:22.955Z,100526.53
2023-05-24T22:56:25.476Z,100529.75
2023-05-24T22:59:27.909Z,100538.88
2023-05-24T23:02:30.907Z,100538.69
2023-05-24T23:05:34.722Z,100534.13
2023-05-24T23:08:37.569Z,100542.44
2023-05-24T23:11:39.976Z,100537.41
2023-05-24T23:14:46.438Z,100540.63
2023-05-24T23:17:52.283Z,100539.38
2023-05-24T23:20:54.906Z,100539.16
2023-05-24T23:23:57.302Z,100541.31
2023-05-24T23:26:59.730Z,100557.16
2023-05-24T23:30:02.099Z,100550.66
2023-05-24T23:33:04.580Z,100545.56
2023-05-24T23:36:07.357Z,100548.06
2023-05-24T23:39:12.688Z,100549.44
2023-05-24T23:42:15.218Z,100547.00
2023-05-24T23:45:17.621Z,100557.72
2023-05-24T23:48:23.232Z,100545.88
2023-05-24T23:51:25.741Z,100541.66
2023-05-24T23:54:28.201Z,100548.72
2023-05-24T23:57:30.551Z,100542.97
